Shellharbour, Australia
Current Conditions -  °F | °C
As of 8:00 AM on Friday 28 Nov 2014 (Local Time) from YSNW Reporting Station
Few Clouds Few Clouds  
Wind Chill: 63°   Ceiling: Unl
Heat Index: 63°   Visibility: 6mi
Dew Point: 52°   Wind: 1mph
Humidity: 68%   Direction: 150°SSE
Pressure: 30.24"   Gusts: NA
Location:  34.58°S, 150.87°E
Report Text: YSNW 272100Z 15001KT 9999 FEW035 17/11 Q1024 NOSIG
Loading
Personal Weather Stations






























Interactive Weather Map New forecast layout! Learn more

10-Day Weather Forecast

Advertisements
Track Severe Weather on mobile